sensor_id;sensor_type;location;lat;lon;timestamp;temperature;humidity
18934;DHT22;9599;53.706;10.384;2023-09-30T00:01:49;13.70;99.90
18934;DHT22;9599;53.706;10.384;2023-09-30T00:04:20;13.70;99.90
18934;DHT22;9599;53.706;10.384;2023-09-30T00:06:48;13.70;99.90
18934;DHT22;9599;53.706;10.384;2023-09-30T00:09:16;13.70;99.90
18934;DHT22;9599;53.706;10.384;2023-09-30T00:11:44;13.70;99.90
18934;DHT22;9599;53.706;10.384;2023-09-30T00:14:13;13.70;99.90
18934;DHT22;9599;53.706;10.384;2023-09-30T00:16:41;13.70;99.90
18934;DHT22;9599;53.706;10.384;2023-09-30T00:19:09;13.80;99.90
18934;DHT22;9599;53.706;10.384;2023-09-30T00:21:39;13.70;99.90
18934;DHT22;9599;53.706;10.384;2023-09-30T00:24:07;13.70;99.90
18934;DHT22;9599;53.706;10.384;2023-09-30T00:26:36;13.70;99.90
18934;DHT22;9599;53.706;10.384;2023-09-30T00:29:05;13.70;99.90
18934;DHT22;9599;53.706;10.384;2023-09-30T00:31:33;13.70;99.90
18934;DHT22;9599;53.706;10.384;2023-09-30T00:34:02;13.60;99.90
18934;DHT22;9599;53.706;10.384;2023-09-30T00:36:31;13.70;99.90
18934;DHT22;9599;53.706;10.384;2023-09-30T00:39:00;13.70;99.90
18934;DHT22;9599;53.706;10.384;2023-09-30T00:41:28;13.70;99.90
18934;DHT22;9599;53.706;10.384;2023-09-30T00:43:56;13.60;99.90
18934;DHT22;9599;53.706;10.384;2023-09-30T00:46:26;13.60;99.90
18934;DHT22;9599;53.706;10.384;2023-09-30T00:48:56;13.60;99.90
18934;DHT22;9599;53.706;10.384;2023-09-30T00:51:25;13.50;99.90
18934;DHT22;9599;53.706;10.384;2023-09-30T00:53:56;13.50;99.90
18934;DHT22;9599;53.706;10.384;2023-09-30T00:56:28;13.50;99.90
18934;DHT22;9599;53.706;10.384;2023-09-30T00:58:58;13.40;99.90
18934;DHT22;9599;53.706;10.384;2023-09-30T01:01:26;13.40;99.90
18934;DHT22;9599;53.706;10.384;2023-09-30T01:03:54;13.40;99.90
18934;DHT22;9599;53.706;10.384;2023-09-30T01:06:23;13.40;99.90
18934;DHT22;9599;53.706;10.384;2023-09-30T01:08:51;13.50;99.90
18934;DHT22;9599;53.706;10.384;2023-09-30T01:11:21;13.50;99.90
18934;DHT22;9599;53.706;10.384;2023-09-30T01:13:50;13.40;99.90
18934;DHT22;9599;53.706;10.384;2023-09-30T01:16:19;13.40;99.90
18934;DHT22;9599;53.706;10.384;2023-09-30T01:18:47;13.40;99.90
18934;DHT22;9599;53.706;10.384;2023-09-30T01:21:15;13.40;99.90
18934;DHT22;9599;53.706;10.384;2023-09-30T01:23:45;13.40;99.90
18934;DHT22;9599;53.706;10.384;2023-09-30T01:26:14;13.30;99.90
18934;DHT22;9599;53.706;10.384;2023-09-30T01:28:42;13.40;99.90
18934;DHT22;9599;53.706;10.384;2023-09-30T01:31:10;13.40;99.90
18934;DHT22;9599;53.706;10.384;2023-09-30T01:33:38;13.40;99.90
18934;DHT22;9599;53.706;10.384;2023-09-30T01:36:06;13.40;99.90
18934;DHT22;9599;53.706;10.384;2023-09-30T01:38:35;13.30;99.90
18934;DHT22;9599;53.706;10.384;2023-09-30T01:41:04;13.30;99.90
18934;DHT22;9599;53.706;10.384;2023-09-30T01:43:34;13.30;99.90
18934;DHT22;9599;53.706;10.384;2023-09-30T01:46:03;13.30;99.90
18934;DHT22;9599;53.706;10.384;2023-09-30T01:48:32;13.30;99.90
18934;DHT22;9599;53.706;10.384;2023-09-30T01:51:00;13.30;99.90
18934;DHT22;9599;53.706;10.384;2023-09-30T01:53:28;13.20;99.90
18934;DHT22;9599;53.706;10.384;2023-09-30T01:55:56;13.20;99.90
18934;DHT22;9599;53.706;10.384;2023-09-30T01:58:25;13.20;99.90
18934;DHT22;9599;53.706;10.384;2023-09-30T02:00:53;13.20;99.90
18934;DHT22;9599;53.706;10.384;2023-09-30T02:03:23;13.20;99.90
18934;DHT22;9599;53.706;10.384;2023-09-30T02:05:51;13.20;99.90
18934;DHT22;9599;53.706;10.384;2023-09-30T02:08:19;13.20;99.90
18934;DHT22;9599;53.706;10.384;2023-09-30T02:10:47;13.20;99.90
18934;DHT22;9599;53.706;10.384;2023-09-30T02:13:15;13.30;99.90
18934;DHT22;9599;53.706;10.384;2023-09-30T02:15:48;13.30;99.90
18934;DHT22;9599;53.706;10.384;2023-09-30T02:18:16;13.30;99.90
18934;DHT22;9599;53.706;10.384;2023-09-30T02:20:46;13.30;99.90
18934;DHT22;9599;53.706;10.384;2023-09-30T02:23:14;13.30;99.90
18934;DHT22;9599;53.706;10.384;2023-09-30T02:25:45;13.30;99.90
18934;DHT22;9599;53.706;10.384;2023-09-30T02:28:13;13.20;99.90
18934;DHT22;9599;53.706;10.384;2023-09-30T02:30:41;13.20;99.90
18934;DHT22;9599;53.706;10.384;2023-09-30T02:33:11;13.20;99.90
18934;DHT22;9599;53.706;10.384;2023-09-30T02:35:43;13.10;99.90
18934;DHT22;9599;53.706;10.384;2023-09-30T02:38:12;13.20;99.90
18934;DHT22;9599;53.706;10.384;2023-09-30T02:40:42;13.20;99.90
18934;DHT22;9599;53.706;10.384;2023-09-30T02:43:13;13.10;99.90
18934;DHT22;9599;53.706;10.384;2023-09-30T02:45:41;13.10;99.90
18934;DHT22;9599;53.706;10.384;2023-09-30T02:48:10;13.10;99.90
18934;DHT22;9599;53.706;10.384;2023-09-30T02:50:38;13.10;99.90
18934;DHT22;9599;53.706;10.384;2023-09-30T02:53:07;13.10;99.90
18934;DHT22;9599;53.706;10.384;2023-09-30T02:55:35;13.10;99.90
18934;DHT22;9599;53.706;10.384;2023-09-30T02:58:03;13.10;99.90
18934;DHT22;9599;53.706;10.384;2023-09-30T03:00:31;13.20;99.90
18934;DHT22;9599;53.706;10.384;2023-09-30T03:03:02;13.10;99.90
18934;DHT22;9599;53.706;10.384;2023-09-30T03:05:32;13.10;99.90
18934;DHT22;9599;53.706;10.384;2023-09-30T03:08:00;13.10;99.90
18934;DHT22;9599;53.706;10.384;2023-09-30T03:10:28;13.10;99.90
18934;DHT22;9599;53.706;10.384;2023-09-30T03:12:57;13.00;99.90
18934;DHT22;9599;53.706;10.384;2023-09-30T03:15:28;13.00;99.90
18934;DHT22;9599;53.706;10.384;2023-09-30T03:17:57;13.00;99.90
18934;DHT22;9599;53.706;10.384;2023-09-30T03:20:26;13.00;99.90
18934;DHT22;9599;53.706;10.384;2023-09-30T03:22:56;13.00;99.90
18934;DHT22;9599;53.706;10.384;2023-09-30T03:25:24;13.00;99.90
18934;DHT22;9599;53.706;10.384;2023-09-30T03:27:52;13.00;99.90
18934;DHT22;9599;53.706;10.384;2023-09-30T03:30:20;13.00;99.90
18934;DHT22;9599;53.706;10.384;2023-09-30T03:32:49;13.00;99.90
18934;DHT22;9599;53.706;10.384;2023-09-30T03:35:17;13.00;99.90
18934;DHT22;9599;53.706;10.384;2023-09-30T03:37:46;12.90;99.90
18934;DHT22;9599;53.706;10.384;2023-09-30T03:40:16;13.00;99.90
18934;DHT22;9599;53.706;10.384;2023-09-30T03:42:48;12.90;99.90
18934;DHT22;9599;53.706;10.384;2023-09-30T03:45:17;12.90;99.90
18934;DHT22;9599;53.706;10.384;2023-09-30T03:47:46;12.90;99.90
18934;DHT22;9599;53.706;10.384;2023-09-30T03:50:16;13.00;99.90
18934;DHT22;9599;53.706;10.384;2023-09-30T03:52:44;13.00;99.90
18934;DHT22;9599;53.706;10.384;2023-09-30T03:55:16;13.00;99.90
18934;DHT22;9599;53.706;10.384;2023-09-30T03:57:48;12.90;99.90
18934;DHT22;9599;53.706;10.384;2023-09-30T04:00:16;12.90;99.90
18934;DHT22;9599;53.706;10.384;2023-09-30T04:02:47;12.90;99.90
18934;DHT22;9599;53.706;10.384;2023-09-30T04:05:17;12.90;99.90
18934;DHT22;9599;53.706;10.384;2023-09-30T04:07:46;12.90;99.90
18934;DHT22;9599;53.706;10.384;2023-09-30T04:10:16;12.90;99.90
18934;DHT22;9599;53.706;10.384;2023-09-30T04:12:47;12.90;99.90
18934;DHT22;9599;53.706;10.384;2023-09-30T04:15:16;12.80;99.90
18934;DHT22;9599;53.706;10.384;2023-09-30T04:17:44;12.80;99.90
18934;DHT22;9599;53.706;10.384;2023-09-30T04:20:12;12.80;99.90
18934;DHT22;9599;53.706;10.384;2023-09-30T04:22:49;12.80;99.90
18934;DHT22;9599;53.706;10.384;2023-09-30T04:25:19;12.80;99.90
18934;DHT22;9599;53.706;10.384;2023-09-30T04:27:47;12.70;99.90
18934;DHT22;9599;53.706;10.384;2023-09-30T04:30:16;12.80;99.90
18934;DHT22;9599;53.706;10.384;2023-09-30T04:32:45;12.80;99.90
18934;DHT22;9599;53.706;10.384;2023-09-30T04:35:13;12.80;99.90
18934;DHT22;9599;53.706;10.384;2023-09-30T04:37:42;12.80;99.90
18934;DHT22;9599;53.706;10.384;2023-09-30T04:40:10;12.80;99.90
18934;DHT22;9599;53.706;10.384;2023-09-30T04:42:44;12.70;99.90
18934;DHT22;9599;53.706;10.384;2023-09-30T04:45:14;12.70;99.90
18934;DHT22;9599;53.706;10.384;2023-09-30T04:47:43;12.70;99.90
18934;DHT22;9599;53.706;10.384;2023-09-30T04:50:12;12.70;99.90
18934;DHT22;9599;53.706;10.384;2023-09-30T04:52:43;12.70;99.90
18934;DHT22;9599;53.706;10.384;2023-09-30T04:55:11;12.70;99.90
18934;DHT22;9599;53.706;10.384;2023-09-30T04:57:44;12.70;99.90
18934;DHT22;9599;53.706;10.384;2023-09-30T05:00:13;12.70;99.90
18934;DHT22;9599;53.706;10.384;2023-09-30T05:02:41;12.70;99.90
18934;DHT22;9599;53.706;10.384;2023-09-30T05:05:11;12.70;99.90
18934;DHT22;9599;53.706;10.384;2023-09-30T05:07:39;12.70;99.90
18934;DHT22;9599;53.706;10.384;2023-09-30T05:10:08;12.70;99.90
18934;DHT22;9599;53.706;10.384;2023-09-30T05:12:40;12.70;99.90
18934;DHT22;9599;53.706;10.384;2023-09-30T05:15:16;12.70;99.90
18934;DHT22;9599;53.706;10.384;2023-09-30T05:17:46;12.80;99.90
18934;DHT22;9599;53.706;10.384;2023-09-30T05:20:15;12.80;99.90
18934;DHT22;9599;53.706;10.384;2023-09-30T05:22:45;12.70;99.90
18934;DHT22;9599;53.706;10.384;2023-09-30T05:25:14;12.80;99.90
18934;DHT22;9599;53.706;10.384;2023-09-30T05:27:44;12.80;99.90
18934;DHT22;9599;53.706;10.384;2023-09-30T05:30:18;12.80;99.90
18934;DHT22;9599;53.706;10.384;2023-09-30T05:32:47;12.80;99.90
18934;DHT22;9599;53.706;10.384;2023-09-30T05:35:19;12.80;99.90
18934;DHT22;9599;53.706;10.384;2023-09-30T05:37:49;12.80;99.90
18934;DHT22;9599;53.706;10.384;2023-09-30T05:40:20;12.90;99.90
18934;DHT22;9599;53.706;10.384;2023-09-30T05:42:52;12.90;99.90
18934;DHT22;9599;53.706;10.384;2023-09-30T05:45:23;12.90;99.90
18934;DHT22;9599;53.706;10.384;2023-09-30T05:47:53;12.90;99.90
18934;DHT22;9599;53.706;10.384;2023-09-30T05:50:22;12.90;99.90
18934;DHT22;9599;53.706;10.384;2023-09-30T05:52:53;12.90;99.90
18934;DHT22;9599;53.706;10.384;2023-09-30T05:55:22;13.00;99.90
18934;DHT22;9599;53.706;10.384;2023-09-30T05:57:52;12.90;99.90
18934;DHT22;9599;53.706;10.384;2023-09-30T06:00:22;13.00;99.90
18934;DHT22;9599;53.706;10.384;2023-09-30T06:02:51;13.00;99.90
18934;DHT22;9599;53.706;10.384;2023-09-30T06:05:19;13.00;99.90
18934;DHT22;9599;53.706;10.384;2023-09-30T06:07:49;13.00;99.90
18934;DHT22;9599;53.706;10.384;2023-09-30T06:10:17;13.00;99.90
18934;DHT22;9599;53.706;10.384;2023-09-30T06:12:46;13.10;99.90
18934;DHT22;9599;53.706;10.384;2023-09-30T06:15:15;13.10;99.90
18934;DHT22;9599;53.706;10.384;2023-09-30T06:17:50;13.10;99.90
18934;DHT22;9599;53.706;10.384;2023-09-30T06:20:19;13.10;99.90
18934;DHT22;9599;53.706;10.384;2023-09-30T06:22:46;13.20;99.90
18934;DHT22;9599;53.706;10.384;2023-09-30T06:25:16;13.10;99.90
18934;DHT22;9599;53.706;10.384;2023-09-30T06:27:44;13.20;99.90
18934;DHT22;9599;53.706;10.384;2023-09-30T06:30:13;13.30;99.90
18934;DHT22;9599;53.706;10.384;2023-09-30T06:32:43;13.30;99.90
18934;DHT22;9599;53.706;10.384;2023-09-30T06:35:13;13.30;99.90
18934;DHT22;9599;53.706;10.384;2023-09-30T06:37:41;13.40;99.90
18934;DHT22;9599;53.706;10.384;2023-09-30T06:40:12;13.50;99.90
18934;DHT22;9599;53.706;10.384;2023-09-30T06:42:40;13.50;99.90
18934;DHT22;9599;53.706;10.384;2023-09-30T06:45:09;13.60;99.90
18934;DHT22;9599;53.706;10.384;2023-09-30T06:47:40;13.60;99.90
18934;DHT22;9599;53.706;10.384;2023-09-30T06:50:10;13.60;99.90
18934;DHT22;9599;53.706;10.384;2023-09-30T06:52:40;13.60;99.90
18934;DHT22;9599;53.706;10.384;2023-09-30T06:55:11;13.60;99.90
18934;DHT22;9599;53.706;10.384;2023-09-30T06:57:41;13.60;99.90
18934;DHT22;9599;53.706;10.384;2023-09-30T07:00:11;13.70;99.90
18934;DHT22;9599;53.706;10.384;2023-09-30T07:02:40;13.80;99.90
18934;DHT22;9599;53.706;10.384;2023-09-30T07:05:10;13.80;99.90
18934;DHT22;9599;53.706;10.384;2023-09-30T07:07:41;13.90;99.90
18934;DHT22;9599;53.706;10.384;2023-09-30T07:10:10;13.90;99.90
18934;DHT22;9599;53.706;10.384;2023-09-30T07:12:38;13.90;99.90
18934;DHT22;9599;53.706;10.384;2023-09-30T07:15:07;13.90;99.90
18934;DHT22;9599;53.706;10.384;2023-09-30T07:17:36;14.00;99.90
18934;DHT22;9599;53.706;10.384;2023-09-30T07:20:05;14.10;99.90
18934;DHT22;9599;53.706;10.384;2023-09-30T07:22:34;14.20;99.90
18934;DHT22;9599;53.706;10.384;2023-09-30T07:25:23;14.30;99.90
18934;DHT22;9599;53.706;10.384;2023-09-30T07:27:51;14.40;99.90
18934;DHT22;9599;53.706;10.384;2023-09-30T07:30:19;14.50;99.90
18934;DHT22;9599;53.706;10.384;2023-09-30T07:32:47;14.60;99.90
18934;DHT22;9599;53.706;10.384;2023-09-30T07:35:15;14.70;99.90
18934;DHT22;9599;53.706;10.384;2023-09-30T07:37:44;14.80;99.90
18934;DHT22;9599;53.706;10.384;2023-09-30T07:40:12;14.90;99.90
18934;DHT22;9599;53.706;10.384;2023-09-30T07:42:43;15.10;99.90
18934;DHT22;9599;53.706;10.384;2023-09-30T07:45:11;15.20;99.90
18934;DHT22;9599;53.706;10.384;2023-09-30T07:47:43;15.30;99.90
18934;DHT22;9599;53.706;10.384;2023-09-30T07:50:13;15.40;99.90
18934;DHT22;9599;53.706;10.384;2023-09-30T07:52:41;15.60;99.90
18934;DHT22;9599;53.706;10.384;2023-09-30T07:55:09;15.70;99.90
18934;DHT22;9599;53.706;10.384;2023-09-30T07:57:40;15.90;99.90
18934;DHT22;9599;53.706;10.384;2023-09-30T08:00:11;15.80;99.90
18934;DHT22;9599;53.706;10.384;2023-09-30T08:02:43;15.80;99.90
18934;DHT22;9599;53.706;10.384;2023-09-30T08:05:12;16.00;99.90
18934;DHT22;9599;53.706;10.384;2023-09-30T08:07:40;16.10;99.90
18934;DHT22;9599;53.706;10.384;2023-09-30T08:10:09;16.10;99.90
18934;DHT22;9599;53.706;10.384;2023-09-30T08:12:40;16.10;99.90
18934;DHT22;9599;53.706;10.384;2023-09-30T08:15:10;16.00;99.90
18934;DHT22;9599;53.706;10.384;2023-09-30T08:17:39;16.10;99.90
18934;DHT22;9599;53.706;10.384;2023-09-30T08:20:08;16.20;99.90
18934;DHT22;9599;53.706;10.384;2023-09-30T08:22:36;16.30;99.90
18934;DHT22;9599;53.706;10.384;2023-09-30T08:25:05;16.40;99.90
18934;DHT22;9599;53.706;10.384;2023-09-30T08:27:35;16.50;99.90
18934;DHT22;9599;53.706;10.384;2023-09-30T08:30:04;16.70;99.90
18934;DHT22;9599;53.706;10.384;2023-09-30T08:32:35;16.70;99.90
18934;DHT22;9599;53.706;10.384;2023-09-30T08:35:04;16.90;99.90
18934;DHT22;9599;53.706;10.384;2023-09-30T08:37:33;16.90;99.90
18934;DHT22;9599;53.706;10.384;2023-09-30T08:40:03;17.00;99.90
18934;DHT22;9599;53.706;10.384;2023-09-30T08:42:33;17.10;99.90
18934;DHT22;9599;53.706;10.384;2023-09-30T08:45:02;17.10;99.90
18934;DHT22;9599;53.706;10.384;2023-09-30T08:47:34;17.10;99.90
18934;DHT22;9599;53.706;10.384;2023-09-30T08:50:04;17.00;99.90
18934;DHT22;9599;53.706;10.384;2023-09-30T08:52:34;17.10;99.90
18934;DHT22;9599;53.706;10.384;2023-09-30T08:55:07;17.20;99.90
18934;DHT22;9599;53.706;10.384;2023-09-30T08:57:37;17.30;99.90
18934;DHT22;9599;53.706;10.384;2023-09-30T09:00:08;17.40;99.90
18934;DHT22;9599;53.706;10.384;2023-09-30T09:02:40;17.50;99.90
18934;DHT22;9599;53.706;10.384;2023-09-30T09:05:09;17.50;99.90
18934;DHT22;9599;53.706;10.384;2023-09-30T09:07:38;17.50;99.90
18934;DHT22;9599;53.706;10.384;2023-09-30T09:10:07;17.60;99.90
18934;DHT22;9599;53.706;10.384;2023-09-30T09:12:37;17.60;99.90
18934;DHT22;9599;53.706;10.384;2023-09-30T09:15:08;17.60;99.90
18934;DHT22;9599;53.706;10.384;2023-09-30T09:17:44;17.80;99.90
18934;DHT22;9599;53.706;10.384;2023-09-30T09:20:18;17.90;99.90
18934;DHT22;9599;53.706;10.384;2023-09-30T09:22:48;17.80;99.90
18934;DHT22;9599;53.706;10.384;2023-09-30T09:25:19;18.00;99.90
18934;DHT22;9599;53.706;10.384;2023-09-30T09:27:50;17.90;99.90
18934;DHT22;9599;53.706;10.384;2023-09-30T09:30:19;17.90;99.90
18934;DHT22;9599;53.706;10.384;2023-09-30T09:32:58;17.80;99.90
18934;DHT22;9599;53.706;10.384;2023-09-30T09:35:28;17.70;99.90
18934;DHT22;9599;53.706;10.384;2023-09-30T09:37:58;17.80;99.90
18934;DHT22;9599;53.706;10.384;2023-09-30T09:40:28;17.80;99.90
18934;DHT22;9599;53.706;10.384;2023-09-30T09:42:56;17.80;99.90
18934;DHT22;9599;53.706;10.384;2023-09-30T09:45:27;17.90;99.90
18934;DHT22;9599;53.706;10.384;2023-09-30T09:47:57;18.30;99.90
18934;DHT22;9599;53.706;10.384;2023-09-30T09:50:26;18.40;99.90
18934;DHT22;9599;53.706;10.384;2023-09-30T09:52:54;18.50;99.90
18934;DHT22;9599;53.706;10.384;2023-09-30T09:55:26;18.60;99.90
18934;DHT22;9599;53.706;10.384;2023-09-30T09:57:54;18.70;99.90
18934;DHT22;9599;53.706;10.384;2023-09-30T10:00:25;18.70;99.90
18934;DHT22;9599;53.706;10.384;2023-09-30T10:02:55;18.70;99.90
18934;DHT22;9599;53.706;10.384;2023-09-30T10:05:23;18.70;99.90
18934;DHT22;9599;53.706;10.384;2023-09-30T10:07:54;18.60;99.90
18934;DHT22;9599;53.706;10.384;2023-09-30T10:10:23;18.30;99.90
18934;DHT22;9599;53.706;10.384;2023-09-30T10:12:51;18.30;99.90
18934;DHT22;9599;53.706;10.384;2023-09-30T10:15:37;18.50;99.90
18934;DHT22;9599;53.706;10.384;2023-09-30T10:18:09;18.50;99.90
18934;DHT22;9599;53.706;10.384;2023-09-30T10:20:43;18.60;99.90
18934;DHT22;9599;53.706;10.384;2023-09-30T10:23:23;18.70;99.90
18934;DHT22;9599;53.706;10.384;2023-09-30T10:25:53;18.80;99.90
18934;DHT22;9599;53.706;10.384;2023-09-30T10:28:35;19.10;99.90
18934;DHT22;9599;53.706;10.384;2023-09-30T10:31:10;18.90;99.90
18934;DHT22;9599;53.706;10.384;2023-09-30T10:36:46;19.10;99.90
18934;DHT22;9599;53.706;10.384;2023-09-30T10:39:14;18.90;99.90
18934;DHT22;9599;53.706;10.384;2023-09-30T10:41:50;18.60;99.90
18934;DHT22;9599;53.706;10.384;2023-09-30T10:44:34;18.40;99.90
18934;DHT22;9599;53.706;10.384;2023-09-30T10:53:14;18.40;99.90
18934;DHT22;9599;53.706;10.384;2023-09-30T10:55:43;18.20;99.90
18934;DHT22;9599;53.706;10.384;2023-09-30T10:58:13;18.00;99.90
18934;DHT22;9599;53.706;10.384;2023-09-30T11:00:52;18.00;99.90
18934;DHT22;9599;53.706;10.384;2023-09-30T11:03:21;18.00;99.90
18934;DHT22;9599;53.706;10.384;2023-09-30T11:05:50;17.90;99.90
18934;DHT22;9599;53.706;10.384;2023-09-30T11:08:29;18.00;99.90
18934;DHT22;9599;53.706;10.384;2023-09-30T11:10:57;18.20;99.90
18934;DHT22;9599;53.706;10.384;2023-09-30T11:13:32;18.40;99.90
18934;DHT22;9599;53.706;10.384;2023-09-30T11:16:02;18.60;99.90
18934;DHT22;9599;53.706;10.384;2023-09-30T11:18:32;18.70;99.90
18934;DHT22;9599;53.706;10.384;2023-09-30T11:21:07;18.80;99.90
18934;DHT22;9599;53.706;10.384;2023-09-30T11:23:37;18.80;99.90
18934;DHT22;9599;53.706;10.384;2023-09-30T11:26:06;18.80;99.90
18934;DHT22;9599;53.706;10.384;2023-09-30T11:28:36;18.60;99.90
18934;DHT22;9599;53.706;10.384;2023-09-30T11:31:11;18.60;99.90
18934;DHT22;9599;53.706;10.384;2023-09-30T11:33:48;18.50;99.90
18934;DHT22;9599;53.706;10.384;2023-09-30T11:36:20;18.60;99.90
18934;DHT22;9599;53.706;10.384;2023-09-30T11:38:51;18.60;99.90
18934;DHT22;9599;53.706;10.384;2023-09-30T11:41:20;18.60;99.90
18934;DHT22;9599;53.706;10.384;2023-09-30T11:44:00;18.50;99.90
18934;DHT22;9599;53.706;10.384;2023-09-30T11:46:28;18.50;99.90
18934;DHT22;9599;53.706;10.384;2023-09-30T11:48:57;18.60;99.90
18934;DHT22;9599;53.706;10.384;2023-09-30T11:51:27;18.50;99.90
18934;DHT22;9599;53.706;10.384;2023-09-30T11:53:56;18.50;99.90
18934;DHT22;9599;53.706;10.384;2023-09-30T11:56:25;18.50;99.90
18934;DHT22;9599;53.706;10.384;2023-09-30T11:58:56;18.70;99.90
18934;DHT22;9599;53.706;10.384;2023-09-30T12:01:26;18.60;99.90
18934;DHT22;9599;53.706;10.384;2023-09-30T12:03:57;18.60;99.90
18934;DHT22;9599;53.706;10.384;2023-09-30T12:06:26;18.60;99.90
18934;DHT22;9599;53.706;10.384;2023-09-30T12:08:55;18.70;99.90
18934;DHT22;9599;53.706;10.384;2023-09-30T12:11:24;18.80;99.90
18934;DHT22;9599;53.706;10.384;2023-09-30T12:13:52;18.80;99.90
18934;DHT22;9599;53.706;10.384;2023-09-30T12:16:20;18.70;99.90
18934;DHT22;9599;53.706;10.384;2023-09-30T12:18:49;18.60;99.90
18934;DHT22;9599;53.706;10.384;2023-09-30T12:21:18;18.50;99.90
18934;DHT22;9599;53.706;10.384;2023-09-30T12:23:47;18.70;99.90
18934;DHT22;9599;53.706;10.384;2023-09-30T12:26:17;18.70;99.90
18934;DHT22;9599;53.706;10.384;2023-09-30T12:28:47;18.60;99.90
18934;DHT22;9599;53.706;10.384;2023-09-30T12:31:15;18.60;99.90
18934;DHT22;9599;53.706;10.384;2023-09-30T12:33:44;18.60;99.90
18934;DHT22;9599;53.706;10.384;2023-09-30T12:36:17;18.60;99.90
18934;DHT22;9599;53.706;10.384;2023-09-30T12:38:45;18.50;99.90
18934;DHT22;9599;53.706;10.384;2023-09-30T12:41:13;18.50;99.90
18934;DHT22;9599;53.706;10.384;2023-09-30T12:43:43;18.60;99.90
18934;DHT22;9599;53.706;10.384;2023-09-30T12:46:11;18.60;99.90
18934;DHT22;9599;53.706;10.384;2023-09-30T12:48:40;18.60;99.90
18934;DHT22;9599;53.706;10.384;2023-09-30T12:51:08;18.60;99.90
18934;DHT22;9599;53.706;10.384;2023-09-30T12:53:36;18.50;99.90
18934;DHT22;9599;53.706;10.384;2023-09-30T12:56:04;18.50;99.90
18934;DHT22;9599;53.706;10.384;2023-09-30T12:58:32;18.40;99.90
18934;DHT22;9599;53.706;10.384;2023-09-30T13:01:02;18.30;99.90
18934;DHT22;9599;53.706;10.384;2023-09-30T13:03:48;18.30;99.90
18934;DHT22;9599;53.706;10.384;2023-09-30T13:06:16;18.20;99.90
18934;DHT22;9599;53.706;10.384;2023-09-30T13:08:46;18.20;99.90
18934;DHT22;9599;53.706;10.384;2023-09-30T13:11:14;18.10;99.90
18934;DHT22;9599;53.706;10.384;2023-09-30T13:13:42;18.10;99.90
18934;DHT22;9599;53.706;10.384;2023-09-30T13:16:11;18.10;99.90
18934;DHT22;9599;53.706;10.384;2023-09-30T13:18:39;18.30;99.90
18934;DHT22;9599;53.706;10.384;2023-09-30T13:21:08;18.40;99.90
18934;DHT22;9599;53.706;10.384;2023-09-30T13:23:38;18.50;99.90
18934;DHT22;9599;53.706;10.384;2023-09-30T13:26:06;18.50;99.90
18934;DHT22;9599;53.706;10.384;2023-09-30T13:28:34;18.40;99.90
18934;DHT22;9599;53.706;10.384;2023-09-30T13:31:02;18.50;99.90
18934;DHT22;9599;53.706;10.384;2023-09-30T13:33:31;18.50;99.90
18934;DHT22;9599;53.706;10.384;2023-09-30T13:36:00;18.50;99.90
18934;DHT22;9599;53.706;10.384;2023-09-30T13:38:29;18.40;99.90
18934;DHT22;9599;53.706;10.384;2023-09-30T13:40:57;18.30;99.90
18934;DHT22;9599;53.706;10.384;2023-09-30T13:43:25;18.30;99.90
18934;DHT22;9599;53.706;10.384;2023-09-30T13:45:53;18.30;99.90
18934;DHT22;9599;53.706;10.384;2023-09-30T13:48:21;18.30;99.90
18934;DHT22;9599;53.706;10.384;2023-09-30T13:50:51;18.20;99.90
18934;DHT22;9599;53.706;10.384;2023-09-30T13:53:19;18.20;99.90
18934;DHT22;9599;53.706;10.384;2023-09-30T13:55:47;18.30;99.90
18934;DHT22;9599;53.706;10.384;2023-09-30T13:58:15;18.40;99.90
18934;DHT22;9599;53.706;10.384;2023-09-30T14:00:46;18.60;99.90
18934;DHT22;9599;53.706;10.384;2023-09-30T14:03:14;18.50;99.90
18934;DHT22;9599;53.706;10.384;2023-09-30T14:05:42;18.40;99.90
18934;DHT22;9599;53.706;10.384;2023-09-30T14:08:13;18.40;99.90
18934;DHT22;9599;53.706;10.384;2023-09-30T14:10:41;18.30;99.90
18934;DHT22;9599;53.706;10.384;2023-09-30T14:13:11;18.20;99.90
18934;DHT22;9599;53.706;10.384;2023-09-30T14:15:39;18.20;99.90
18934;DHT22;9599;53.706;10.384;2023-09-30T14:18:07;18.10;99.90
18934;DHT22;9599;53.706;10.384;2023-09-30T14:20:35;18.20;99.90
18934;DHT22;9599;53.706;10.384;2023-09-30T14:23:03;18.20;99.90
18934;DHT22;9599;53.706;10.384;2023-09-30T14:25:32;18.10;99.90
18934;DHT22;9599;53.706;10.384;2023-09-30T14:28:00;18.10;99.90
18934;DHT22;9599;53.706;10.384;2023-09-30T14:30:28;18.10;99.90
18934;DHT22;9599;53.706;10.384;2023-09-30T14:32:56;18.10;99.90
18934;DHT22;9599;53.706;10.384;2023-09-30T14:35:24;18.20;99.90
18934;DHT22;9599;53.706;10.384;2023-09-30T14:37:52;18.10;99.90
18934;DHT22;9599;53.706;10.384;2023-09-30T14:40:21;18.10;99.90
18934;DHT22;9599;53.706;10.384;2023-09-30T14:42:50;18.10;99.90
18934;DHT22;9599;53.706;10.384;2023-09-30T14:45:18;18.10;99.90
18934;DHT22;9599;53.706;10.384;2023-09-30T14:47:48;18.10;99.90
18934;DHT22;9599;53.706;10.384;2023-09-30T14:50:16;18.00;99.90
18934;DHT22;9599;53.706;10.384;2023-09-30T14:52:44;17.90;99.90
18934;DHT22;9599;53.706;10.384;2023-09-30T14:55:12;17.90;99.90
18934;DHT22;9599;53.706;10.384;2023-09-30T14:57:43;17.90;99.90
18934;DHT22;9599;53.706;10.384;2023-09-30T15:00:13;17.90;99.90
18934;DHT22;9599;53.706;10.384;2023-09-30T15:02:42;17.90;99.90
18934;DHT22;9599;53.706;10.384;2023-09-30T15:05:10;17.80;99.90
18934;DHT22;9599;53.706;10.384;2023-09-30T15:07:38;17.80;99.90
18934;DHT22;9599;53.706;10.384;2023-09-30T15:10:06;17.70;99.90
18934;DHT22;9599;53.706;10.384;2023-09-30T15:12:35;17.70;99.90
18934;DHT22;9599;53.706;10.384;2023-09-30T15:15:03;17.70;99.90
18934;DHT22;9599;53.706;10.384;2023-09-30T15:17:33;17.70;99.90
18934;DHT22;9599;53.706;10.384;2023-09-30T15:20:03;17.80;99.90
18934;DHT22;9599;53.706;10.384;2023-09-30T15:22:31;17.80;99.90
18934;DHT22;9599;53.706;10.384;2023-09-30T15:24:59;17.80;99.90
18934;DHT22;9599;53.706;10.384;2023-09-30T15:27:27;17.90;99.90
18934;DHT22;9599;53.706;10.384;2023-09-30T15:29:55;17.80;99.90
18934;DHT22;9599;53.706;10.384;2023-09-30T15:32:25;17.70;99.90
18934;DHT22;9599;53.706;10.384;2023-09-30T15:34:55;17.70;99.90
18934;DHT22;9599;53.706;10.384;2023-09-30T15:37:23;17.70;99.90
18934;DHT22;9599;53.706;10.384;2023-09-30T15:39:51;17.60;99.90
18934;DHT22;9599;53.706;10.384;2023-09-30T15:42:19;17.60;99.90
18934;DHT22;9599;53.706;10.384;2023-09-30T15:44:47;17.60;99.90
18934;DHT22;9599;53.706;10.384;2023-09-30T15:47:15;17.50;99.90
18934;DHT22;9599;53.706;10.384;2023-09-30T15:49:43;17.40;99.90
18934;DHT22;9599;53.706;10.384;2023-09-30T15:52:13;17.40;99.90
18934;DHT22;9599;53.706;10.384;2023-09-30T15:54:41;17.40;99.90